Time;durP1;ratioP1;P1;durP2;ratioP2;P2;SDS_P1;SDS_P2;PMS_P1;PMS_P2;Temp;Humidity;BMP_temperature;BMP_pressure;BME280_temperature;BME280_humidity;BME280_pressure;Samples;Min_cycle;Max_cycle;Signal;HPM_P1;HPM_P2
2023/08/06 00:00:09;;;;;;;7.88;7.15;;;14.30;99.90;;;;;;4976284;28;20055;-75
2023/08/06 00:06:21;;;;;;;10.57;8.30;;;14.30;99.90;;;;;;4976212;28;20090;-75
2023/08/06 00:08:46;;;;;;;10.45;8.30;;;14.30;99.90;;;;;;4958668;28;20042;-75
2023/08/06 00:11:12;;;;;;;8.18;7.18;;;14.30;99.90;;;;;;4976616;28;20426;-75
2023/08/06 00:13:38;;;;;;;9.63;7.95;;;14.30;99.90;;;;;;4958952;28;20125;-74
2023/08/06 00:16:11;;;;;;;9.23;8.38;;;14.30;99.90;;;;;;4976267;28;20066;-74
2023/08/06 00:18:36;;;;;;;9.20;8.40;;;14.30;99.90;;;;;;4958400;28;20077;-75
2023/08/06 00:21:02;;;;;;;9.45;8.55;;;14.30;99.90;;;;;;4976042;28;20043;-75
2023/08/06 00:23:27;;;;;;;9.45;8.20;;;14.30;99.90;;;;;;4959013;28;20070;-75
2023/08/06 00:25:53;;;;;;;10.38;8.60;;;14.30;99.90;;;;;;4958774;28;20101;-75
2023/08/06 00:28:18;;;;;;;9.40;8.15;;;14.30;99.90;;;;;;4959083;28;20138;-75
2023/08/06 00:34:25;;;;;;;7.78;7.07;;;14.20;99.90;;;;;;4976142;28;20446;-74
2023/08/06 00:40:31;;;;;;;9.90;7.25;;;14.20;99.90;;;;;;4975396;28;20034;-75
2023/08/06 00:42:57;;;;;;;8.60;7.80;;;14.20;99.90;;;;;;4957939;28;20042;-75
2023/08/06 00:45:22;;;;;;;8.18;7.45;;;14.20;99.90;;;;;;4958226;28;20046;-75
2023/08/06 00:47:48;;;;;;;9.32;8.35;;;14.20;99.90;;;;;;4975102;28;20042;-74
2023/08/06 00:50:14;;;;;;;9.40;7.32;;;14.30;99.90;;;;;;4975612;28;20483;-74
2023/08/06 00:52:40;;;;;;;8.60;7.80;;;14.20;99.90;;;;;;4958147;28;20047;-75
2023/08/06 00:55:06;;;;;;;8.77;8.00;;;14.20;99.90;;;;;;4957982;28;20074;-74
2023/08/06 00:57:32;;;;;;;8.50;7.70;;;14.30;99.90;;;;;;4941954;28;20045;-74
2023/08/06 00:59:58;;;;;;;8.52;7.78;;;14.30;99.90;;;;;;4975462;28;20039;-75
2023/08/06 01:02:23;;;;;;;8.88;8.00;;;14.20;99.90;;;;;;4957287;28;20394;-75
2023/08/06 01:04:49;;;;;;;8.38;7.50;;;14.30;99.90;;;;;;4957979;28;20390;-74
2023/08/06 01:07:39;;;;;;;13.07;7.55;;;14.20;99.90;;;;;;4975183;28;20042;-75
2023/08/06 01:10:10;;;;;;;8.63;7.82;;;14.20;99.90;;;;;;4957624;28;20039;-75
2023/08/06 01:13:04;;;;;;;8.15;7.35;;;14.20;99.90;;;;;;4975373;28;20043;-75
2023/08/06 01:15:38;;;;;;;12.20;7.70;;;14.20;99.90;;;;;;4974990;28;20053;-75
2023/08/06 01:18:04;;;;;;;7.80;6.97;;;14.20;99.90;;;;;;4974935;28;20459;-75
2023/08/06 01:24:11;;;;;;;8.50;6.88;;;14.20;99.90;;;;;;4974697;28;20492;-75
2023/08/06 01:26:41;;;;;;;9.10;7.32;;;14.20;99.90;;;;;;4957578;28;20074;-75
2023/08/06 01:29:31;;;;;;;11.68;7.78;;;14.20;99.90;;;;;;4957299;28;20042;-75
2023/08/06 01:31:58;;;;;;;7.35;6.72;;;14.20;99.90;;;;;;4974944;28;20047;-75
2023/08/06 01:34:27;;;;;;;7.97;7.03;;;14.20;99.90;;;;;;4974386;28;20047;-75
2023/08/06 01:36:53;;;;;;;8.32;6.93;;;14.20;99.90;;;;;;4956746;28;20046;-75
2023/08/06 01:39:22;;;;;;;6.75;6.15;;;14.20;99.90;;;;;;4974658;28;20396;-75
2023/08/06 01:41:48;;;;;;;7.05;6.40;;;14.10;99.90;;;;;;4957282;28;20061;-75
2023/08/06 01:44:14;;;;;;;6.85;6.13;;;14.10;99.90;;;;;;4957314;28;20063;-75
2023/08/06 01:46:40;;;;;;;8.40;6.00;;;14.10;99.90;;;;;;4973869;28;20129;-75
2023/08/06 01:49:05;;;;;;;7.40;6.63;;;14.10;99.90;;;;;;4956262;28;20093;-75
2023/08/06 01:51:31;;;;;;;11.20;7.18;;;14.00;99.90;;;;;;4974472;28;20074;-75
2023/08/06 01:53:56;;;;;;;8.63;5.95;;;14.00;99.90;;;;;;4956599;28;20085;-75
2023/08/06 01:56:22;;;;;;;11.90;6.45;;;14.00;99.90;;;;;;4974445;28;20075;-75
2023/08/06 01:58:47;;;;;;;7.45;6.40;;;14.00;99.90;;;;;;4974118;28;20069;-75
2023/08/06 02:01:13;;;;;;;11.25;6.00;;;14.00;99.90;;;;;;4974475;28;20088;-75
2023/08/06 02:03:39;;;;;;;7.97;6.32;;;14.00;99.90;;;;;;4940553;28;20105;-75
2023/08/06 02:06:04;;;;;;;8.63;6.30;;;14.00;99.90;;;;;;4957024;28;20125;-75
2023/08/06 02:08:30;;;;;;;6.78;5.95;;;13.90;99.90;;;;;;4957027;28;20034;-75
2023/08/06 02:10:57;;;;;;;6.40;5.75;;;13.90;99.90;;;;;;4956601;28;20055;-75
2023/08/06 02:13:23;;;;;;;6.22;5.72;;;14.00;99.90;;;;;;4956598;28;20047;-75
2023/08/06 02:15:48;;;;;;;6.55;5.95;;;14.00;99.90;;;;;;4973807;28;20046;-75
2023/08/06 02:18:15;;;;;;;7.38;6.57;;;14.00;99.90;;;;;;4956666;28;20037;-75
2023/08/06 02:20:40;;;;;;;8.55;6.53;;;14.00;99.90;;;;;;4973535;28;20442;-75
2023/08/06 02:23:06;;;;;;;7.43;6.57;;;14.00;99.90;;;;;;4956534;28;20050;-75
2023/08/06 02:25:32;;;;;;;7.55;6.82;;;14.00;99.90;;;;;;4956425;28;20102;-75
2023/08/06 02:31:38;;;;;;;8.35;7.18;;;14.00;99.90;;;;;;4973720;28;20098;-75
2023/08/06 02:34:04;;;;;;;9.57;6.60;;;14.00;99.90;;;;;;4956450;28;20047;-75
2023/08/06 02:36:29;;;;;;;7.97;6.43;;;14.00;99.90;;;;;;4956252;28;20477;-75
2023/08/06 02:38:55;;;;;;;6.78;6.18;;;14.00;99.90;;;;;;4956224;28;20473;-75
2023/08/06 02:41:21;;;;;;;7.43;6.32;;;14.00;99.90;;;;;;4956407;28;20047;-75
2023/08/06 02:47:27;;;;;;;8.15;7.25;;;14.00;99.90;;;;;;4973272;28;20065;-75
2023/08/06 02:49:53;;;;;;;7.38;6.63;;;14.00;99.90;;;;;;4973941;28;20493;-75
2023/08/06 02:52:18;;;;;;;8.38;7.57;;;14.00;99.90;;;;;;4973334;28;20038;-75
2023/08/06 02:58:25;;;;;;;7.55;6.82;;;14.00;99.90;;;;;;4973283;28;20037;-75
2023/08/06 03:04:31;;;;;;;8.18;6.65;;;14.00;99.90;;;;;;4977485;28;20058;-75
2023/08/06 03:06:57;;;;;;;8.10;7.30;;;14.00;99.90;;;;;;4977386;28;20042;-75
2023/08/06 03:13:03;;;;;;;7.55;6.70;;;14.00;99.90;;;;;;4977634;28;20409;-75
2023/08/06 03:15:29;;;;;;;7.72;6.82;;;14.00;99.90;;;;;;4977598;28;20039;-75
2023/08/06 03:21:35;;;;;;;8.68;6.85;;;14.00;99.90;;;;;;4976944;28;20085;-75
2023/08/06 03:24:01;;;;;;;9.55;7.72;;;14.00;99.90;;;;;;4943593;28;20039;-75
2023/08/06 03:30:08;;;;;;;7.38;6.72;;;14.00;99.90;;;;;;4977156;28;20146;-75
2023/08/06 03:32:33;;;;;;;9.10;7.70;;;14.00;99.90;;;;;;4959899;28;20042;-75
2023/08/06 03:34:59;;;;;;;8.05;7.32;;;14.00;99.90;;;;;;4976981;28;20482;-75
2023/08/06 03:37:24;;;;;;;8.50;7.35;;;14.00;99.90;;;;;;4976741;28;20039;-75
2023/08/06 03:39:50;;;;;;;8.27;6.85;;;14.00;99.90;;;;;;4976957;28;20050;-75
2023/08/06 03:45:56;;;;;;;8.48;7.68;;;14.00;99.90;;;;;;4976909;28;20398;-75
2023/08/06 03:48:22;;;;;;;12.77;8.02;;;14.00;99.90;;;;;;4959172;28;20046;-75
2023/08/06 03:54:29;;;;;;;11.93;8.30;;;14.00;99.90;;;;;;4976824;28;20078;-75
2023/08/06 03:56:55;;;;;;;8.25;7.45;;;14.00;99.90;;;;;;4958732;28;20042;-75
2023/08/06 03:59:21;;;;;;;8.38;7.50;;;14.00;99.90;;;;;;4959297;28;20050;-75
2023/08/06 04:01:46;;;;;;;8.75;7.63;;;14.00;99.90;;;;;;4976743;28;20043;-75
2023/08/06 04:04:12;;;;;;;7.97;7.22;;;14.00;99.90;;;;;;4976489;28;20101;-75
2023/08/06 04:06:37;;;;;;;9.75;8.45;;;14.10;99.90;;;;;;4976429;28;20394;-75
2023/08/06 04:09:03;;;;;;;9.15;8.05;;;14.00;99.90;;;;;;4975842;28;20097;-75
2023/08/06 04:11:28;;;;;;;9.00;8.15;;;14.00;99.90;;;;;;4957967;28;20050;-75
2023/08/06 04:13:55;;;;;;;10.82;7.60;;;14.00;99.90;;;;;;4976288;28;20450;-75
2023/08/06 04:16:21;;;;;;;9.02;7.40;;;14.10;99.90;;;;;;4975988;28;20105;-75
2023/08/06 04:18:46;;;;;;;10.07;8.38;;;14.00;99.90;;;;;;4958505;28;20490;-75
2023/08/06 04:21:12;;;;;;;9.15;8.35;;;14.00;99.90;;;;;;4976545;28;20049;-75
2023/08/06 04:23:38;;;;;;;8.20;7.53;;;14.00;99.90;;;;;;4958748;28;20050;-75
2023/08/06 04:26:03;;;;;;;8.68;7.97;;;14.10;99.90;;;;;;4958363;28;20053;-75
2023/08/06 04:28:29;;;;;;;8.85;7.95;;;14.10;99.90;;;;;;4975378;28;20053;-75
2023/08/06 04:30:55;;;;;;;9.45;8.27;;;14.10;99.90;;;;;;4975627;28;20035;-75
2023/08/06 04:33:21;;;;;;;10.63;8.70;;;14.10;99.90;;;;;;4976116;28;20140;-75
2023/08/06 04:39:27;;;;;;;11.93;8.23;;;14.10;99.90;;;;;;4975786;28;20033;-75
2023/08/06 04:41:53;;;;;;;9.45;8.55;;;14.20;99.90;;;;;;4958409;28;20043;-75
2023/08/06 04:44:18;;;;;;;9.95;8.95;;;14.20;99.90;;;;;;4975529;28;20053;-75
2023/08/06 04:46:44;;;;;;;9.38;8.40;;;14.20;99.90;;;;;;4958289;28;20378;-75
2023/08/06 04:49:10;;;;;;;8.50;7.90;;;14.20;99.90;;;;;;4975790;28;20051;-75
2023/08/06 04:51:35;;;;;;;10.40;7.70;;;14.30;99.90;;;;;;4958378;28;20512;-75
2023/08/06 04:54:01;;;;;;;8.45;7.10;;;14.30;99.90;;;;;;4958321;28;20049;-75
2023/08/06 04:56:26;;;;;;;11.15;8.27;;;14.40;99.90;;;;;;4976734;28;20074;-75
2023/08/06 04:58:52;;;;;;;7.82;7.07;;;14.50;99.90;;;;;;4958961;28;20125;-75
2023/08/06 05:01:18;;;;;;;7.90;7.30;;;14.50;99.90;;;;;;4942705;28;20077;-75
2023/08/06 05:03:43;;;;;;;8.73;7.28;;;14.60;99.90;;;;;;4958236;28;20085;-75
2023/08/06 05:06:09;;;;;;;10.27;7.82;;;14.50;99.90;;;;;;4958360;28;20093;-75
2023/08/06 05:08:34;;;;;;;7.78;7.07;;;14.60;99.90;;;;;;4957694;28;20046;-75
2023/08/06 05:14:41;;;;;;;8.43;7.53;;;14.70;99.90;;;;;;4975181;28;20073;-75
2023/08/06 05:20:48;;;;;;;8.70;7.57;;;14.70;99.90;;;;;;4974966;28;20063;-75
2023/08/06 05:23:13;;;;;;;8.82;8.07;;;14.70;99.90;;;;;;4957491;28;20444;-75
2023/08/06 05:25:39;;;;;;;9.68;7.85;;;14.90;99.90;;;;;;4941248;28;20120;-75
2023/08/06 05:31:45;;;;;;;8.18;7.47;;;14.90;99.90;;;;;;4974610;28;20053;-75
2023/08/06 05:34:11;;;;;;;8.48;7.70;;;15.50;99.90;;;;;;4957743;28;20038;-75
2023/08/06 05:36:36;;;;;;;6.32;5.80;;;15.70;99.90;;;;;;4957144;28;20075;-75
2023/08/06 05:39:02;;;;;;;6.13;5.63;;;16.00;99.90;;;;;;4957338;28;20473;-75
2023/08/06 05:41:28;;;;;;;6.03;5.45;;;16.20;99.90;;;;;;4974901;28;20512;-75
2023/08/06 05:47:34;;;;;;;5.35;4.95;;;17.30;99.90;;;;;;4974032;28;20070;-76
2023/08/06 05:50:00;;;;;;;6.63;5.40;;;17.20;99.90;;;;;;4956908;28;20050;-76
2023/08/06 05:52:25;;;;;;;5.85;5.35;;;17.20;99.90;;;;;;4956884;28;20042;-75
2023/08/06 05:54:51;;;;;;;6.10;5.70;;;17.00;99.90;;;;;;4956888;28;20049;-76
2023/08/06 05:57:17;;;;;;;7.18;5.32;;;16.80;99.90;;;;;;4956546;28;20046;-75
2023/08/06 05:59:43;;;;;;;6.10;5.60;;;16.70;99.90;;;;;;4974180;28;20031;-75
2023/08/06 06:02:09;;;;;;;5.75;5.18;;;16.60;99.90;;;;;;4957125;28;20081;-75
2023/08/06 06:04:35;;;;;;;6.75;6.03;;;16.50;99.90;;;;;;4974198;28;20114;-75
2023/08/06 06:07:01;;;;;;;6.40;5.80;;;16.40;99.90;;;;;;4956702;28;20121;-76
2023/08/06 06:13:07;;;;;;;7.20;6.53;;;16.10;99.90;;;;;;4973855;28;20053;-75
2023/08/06 06:15:33;;;;;;;6.82;6.30;;;15.90;99.90;;;;;;4956464;28;20042;-75
2023/08/06 06:21:39;;;;;;;8.80;8.10;;;15.70;99.90;;;;;;4973838;28;20097;-75
2023/08/06 06:24:05;;;;;;;9.73;8.65;;;15.70;99.90;;;;;;4956075;28;20047;-75
2023/08/06 06:26:32;;;;;;;8.50;7.90;;;15.70;99.90;;;;;;4956394;28;20611;-75
2023/08/06 06:32:40;;;;;;;8.10;7.50;;;15.60;99.90;;;;;;4973827;28;20525;-75
2023/08/06 06:35:06;;;;;;;9.20;8.50;;;15.60;99.90;;;;;;4956003;28;20085;-75
2023/08/06 06:41:12;;;;;;;9.65;8.90;;;15.40;99.90;;;;;;4974159;28;20064;-75
2023/08/06 06:43:39;;;;;;;9.52;8.80;;;15.40;99.90;;;;;;4956522;28;20067;-76
2023/08/06 06:46:05;;;;;;;10.27;9.25;;;15.40;99.90;;;;;;4955974;28;20502;-75
2023/08/06 06:48:32;;;;;;;9.15;8.45;;;15.30;99.90;;;;;;4973950;28;20075;-75
2023/08/06 06:50:58;;;;;;;9.50;8.60;;;15.40;99.90;;;;;;4956362;28;20093;-74
2023/08/06 06:53:27;;;;;;;9.25;8.45;;;15.30;99.90;;;;;;4956689;28;20046;-75
2023/08/06 06:55:56;;;;;;;9.73;8.98;;;15.40;99.90;;;;;;4973823;28;20035;-75
2023/08/06 07:02:02;;;;;;;9.63;8.77;;;15.30;99.90;;;;;;4973462;28;20089;-75
2023/08/06 07:08:09;;;;;;;10.68;9.65;;;15.40;99.90;;;;;;4973443;28;20097;-75
2023/08/06 07:10:34;;;;;;;11.27;7.95;;;15.50;99.90;;;;;;4956473;28;20078;-75
2023/08/06 07:13:00;;;;;;;9.50;8.70;;;15.50;99.90;;;;;;4973671;28;20050;-75
2023/08/06 09:46:25;;;;;;;3.47;2.58;;;19.10;99.90;;;;;;4931807;29;20035;-76
2023/08/06 09:48:50;;;;;;;2.60;2.40;;;19.20;99.90;;;;;;4958403;28;20474;-76
2023/08/06 09:51:16;;;;;;;2.80;2.50;;;19.20;99.90;;;;;;4945022;28;20122;-76
2023/08/06 09:53:42;;;;;;;3.42;2.83;;;19.30;99.90;;;;;;4928405;28;20059;-76
2023/08/06 09:56:10;;;;;;;2.25;2.10;;;19.40;99.90;;;;;;4944952;28;20094;-75
2023/08/06 09:58:38;;;;;;;3.45;2.30;;;19.50;99.90;;;;;;4943766;28;20407;-76
2023/08/06 10:01:04;;;;;;;3.00;2.17;;;19.60;99.90;;;;;;4945965;28;20742;-76
2023/08/06 10:03:31;;;;;;;3.42;2.15;;;19.60;99.90;;;;;;4958090;28;20490;-76
2023/08/06 10:05:58;;;;;;;2.60;2.40;;;19.70;99.90;;;;;;4932474;28;20051;-76
2023/08/06 10:08:23;;;;;;;2.58;2.30;;;19.90;99.90;;;;;;4943776;28;20055;-76
2023/08/06 10:10:49;;;;;;;2.42;2.22;;;20.00;99.90;;;;;;4948172;28;20526;-76
2023/08/06 10:13:17;;;;;;;2.95;2.45;;;20.20;99.90;;;;;;4935207;28;20493;-76
2023/08/06 10:15:43;;;;;;;2.50;2.30;;;20.50;99.90;;;;;;4946691;28;20039;-77
2023/08/06 10:18:09;;;;;;;4.32;2.30;;;20.60;99.90;;;;;;4926310;29;20393;-76
2023/08/06 10:20:35;;;;;;;2.63;2.40;;;20.70;99.90;;;;;;4940314;28;20070;-77
2023/08/06 10:23:06;;;;;;;3.42;2.65;;;20.80;99.90;;;;;;4928565;28;20044;-76
2023/08/06 10:25:33;;;;;;;3.72;2.20;;;20.80;99.90;;;;;;4929606;28;20055;-76
2023/08/06 10:27:59;;;;;;;5.00;1.80;;;20.90;99.90;;;;;;4945248;28;20612;-76
2023/08/06 10:30:33;;;;;;;3.42;1.75;;;20.90;99.90;;;;;;4928715;29;20043;-77
2023/08/06 10:33:00;;;;;;;3.88;2.03;;;21.10;99.90;;;;;;4946891;29;20122;-76
2023/08/06 10:35:32;;;;;;;3.30;1.70;;;21.30;99.90;;;;;;4961719;28;20117;-77
2023/08/06 10:38:21;;;;;;;3.72;1.60;;;21.20;99.90;;;;;;4962245;28;20051;-76
2023/08/06 10:41:01;;;;;;;2.65;1.67;;;21.20;99.90;;;;;;4945395;28;20080;-77
2023/08/06 10:43:35;;;;;;;1.50;1.30;;;21.40;99.90;;;;;;4945603;28;20043;-77
2023/08/06 10:46:10;;;;;;;2.50;1.60;;;21.60;99.90;;;;;;4941053;28;20039;-77
2023/08/06 10:48:45;;;;;;;4.90;1.70;;;21.70;99.90;;;;;;4946925;28;20047;-77
2023/08/06 10:51:13;;;;;;;2.93;1.50;;;21.80;99.90;;;;;;4961987;28;20134;-77
2023/08/06 10:53:42;;;;;;;1.42;1.20;;;21.60;99.90;;;;;;4961225;28;20062;-77
2023/08/06 10:56:27;;;;;;;3.45;1.25;;;21.70;99.90;;;;;;4942328;28;20048;-77
2023/08/06 10:58:57;;;;;;;3.17;1.10;;;21.80;99.90;;;;;;4944638;28;21716;-77
2023/08/06 11:01:23;;;;;;;2.33;0.82;;;21.80;99.90;;;;;;4959639;28;20051;-77
2023/08/06 11:03:50;;;;;;;1.25;1.05;;;21.70;99.90;;;;;;4957784;28;20142;-77
2023/08/06 11:06:20;;;;;;;2.03;0.90;;;21.50;99.90;;;;;;4940332;29;20495;-77
2023/08/06 11:08:51;;;;;;;1.17;0.93;;;21.50;99.90;;;;;;4930188;28;20086;-77
2023/08/06 11:11:17;;;;;;;1.73;0.93;;;21.60;99.90;;;;;;4929228;29;20046;-77
2023/08/06 11:13:46;;;;;;;2.25;0.70;;;21.70;99.90;;;;;;4958372;28;20191;-77
2023/08/06 11:16:16;;;;;;;1.85;0.90;;;21.80;99.90;;;;;;4942914;28;20062;-77
2023/08/06 11:18:42;;;;;;;2.20;0.80;;;21.80;99.90;;;;;;4927546;29;20052;-77
2023/08/06 11:21:08;;;;;;;3.10;0.85;;;21.80;99.90;;;;;;4945296;28;20046;-77
2023/08/06 11:23:35;;;;;;;1.05;0.80;;;21.90;99.90;;;;;;4929761;29;20071;-77
2023/08/06 11:26:00;;;;;;;3.63;1.00;;;21.80;99.90;;;;;;4959607;28;20066;-77
2023/08/06 11:28:26;;;;;;;1.45;0.60;;;21.80;99.90;;;;;;4947236;28;20044;-77
2023/08/06 11:30:53;;;;;;;1.83;0.77;;;21.80;99.90;;;;;;4929608;28;20043;-77
2023/08/06 11:33:25;;;;;;;2.03;0.95;;;21.60;99.90;;;;;;4963893;28;20049;-77
2023/08/06 11:35:51;;;;;;;2.15;0.80;;;21.60;99.90;;;;;;4965266;28;20055;-77
2023/08/06 11:38:17;;;;;;;1.40;0.75;;;21.50;99.90;;;;;;4944614;28;20075;-77
2023/08/06 11:40:45;;;;;;;4.05;0.95;;;21.50;99.90;;;;;;4927984;29;20138;-77
2023/08/06 11:43:11;;;;;;;1.20;0.85;;;21.60;99.90;;;;;;4932463;29;20061;-77
2023/08/06 11:45:37;;;;;;;1.33;0.70;;;21.50;99.90;;;;;;4960262;28;20091;-77
2023/08/06 11:48:03;;;;;;;1.90;0.82;;;21.40;99.90;;;;;;4946264;28;20406;-77
2023/08/06 11:50:30;;;;;;;1.70;0.80;;;21.50;99.90;;;;;;4944223;28;20070;-77
2023/08/06 11:53:00;;;;;;;2.20;0.90;;;21.40;99.90;;;;;;4946507;28;20126;-77
2023/08/06 11:55:30;;;;;;;2.17;0.93;;;21.50;99.90;;;;;;4928178;29;20062;-77
2023/08/06 11:57:57;;;;;;;2.35;1.00;;;21.50;99.90;;;;;;4960336;28;20062;-77
2023/08/06 12:00:24;;;;;;;1.95;0.88;;;21.60;99.90;;;;;;4946051;28;20044;-77
2023/08/06 12:02:52;;;;;;;0.85;0.70;;;21.90;99.90;;;;;;4930134;28;20160;-77
2023/08/06 12:05:32;;;;;;;2.35;0.75;;;22.20;99.90;;;;;;4928937;29;20052;-77
2023/08/06 12:07:59;;;;;;;1.77;0.68;;;22.50;99.90;;;;;;4946487;28;20165;-76
2023/08/06 12:10:27;;;;;;;2.65;0.70;;;22.60;99.90;;;;;;4961211;28;20032;-76
2023/08/06 12:12:53;;;;;;;2.00;0.75;;;22.50;99.90;;;;;;4946077;28;20055;-76
2023/08/06 12:15:19;;;;;;;1.45;1.08;;;22.40;99.90;;;;;;4945048;28;20648;-76
2023/08/06 12:17:45;;;;;;;4.50;0.80;;;22.10;99.90;;;;;;4948302;28;20371;-76
2023/08/06 12:20:11;;;;;;;2.17;0.77;;;22.10;99.90;;;;;;4929788;28;20090;-76
2023/08/06 12:22:38;;;;;;;2.03;0.82;;;22.00;99.90;;;;;;4918648;29;20070;-76
2023/08/06 12:25:08;;;;;;;1.50;0.70;;;21.90;99.90;;;;;;4961348;28;20044;-76
2023/08/06 12:27:38;;;;;;;2.08;0.80;;;21.80;99.90;;;;;;4946321;28;20035;-77
2023/08/06 12:30:05;;;;;;;2.55;0.95;;;21.90;99.90;;;;;;4949997;28;20043;-76
2023/08/06 12:32:31;;;;;;;4.45;1.13;;;21.90;99.90;;;;;;4927512;29;20039;-76
2023/08/06 12:34:57;;;;;;;1.45;0.63;;;21.70;99.90;;;;;;4945647;28;20411;-76
2023/08/06 12:37:25;;;;;;;1.33;0.70;;;21.70;99.90;;;;;;4929918;29;20039;-77
2023/08/06 12:39:50;;;;;;;6.07;1.20;;;21.50;99.90;;;;;;4930295;28;20118;-76
2023/08/06 12:42:16;;;;;;;3.00;1.73;;;21.40;99.90;;;;;;4946485;28;20499;-76
2023/08/06 12:44:41;;;;;;;2.65;0.98;;;21.30;99.90;;;;;;4948071;28;20120;-76
2023/08/06 12:47:07;;;;;;;1.90;0.93;;;21.10;99.90;;;;;;4959168;28;20040;-76
2023/08/06 12:49:33;;;;;;;3.35;1.05;;;21.00;99.90;;;;;;4961287;28;20087;-76
2023/08/06 12:52:02;;;;;;;2.72;0.90;;;20.90;99.90;;;;;;4942400;28;20042;-77
2023/08/06 12:54:28;;;;;;;1.83;0.85;;;20.90;99.90;;;;;;4958107;28;20099;-77
2023/08/06 12:56:54;;;;;;;1.77;0.88;;;20.80;99.90;;;;;;4949482;28;20035;-76
2023/08/06 12:59:20;;;;;;;1.20;0.80;;;20.80;99.90;;;;;;4958101;28;20039;-76
2023/08/06 13:01:46;;;;;;;0.90;0.70;;;20.80;99.90;;;;;;4945014;28;20047;-76
2023/08/06 13:04:12;;;;;;;1.38;0.73;;;20.80;99.90;;;;;;4926143;29;20035;-76
2023/08/06 13:06:39;;;;;;;1.58;0.85;;;20.70;99.90;;;;;;4926318;28;20090;-76
2023/08/06 13:09:06;;;;;;;2.05;0.80;;;20.70;99.90;;;;;;4927358;29;20078;-76
2023/08/06 13:11:32;;;;;;;3.10;0.70;;;20.60;99.90;;;;;;4927299;28;20102;-76
2023/08/06 13:14:18;;;;;;;17.02;6.20;;;20.70;99.90;;;;;;4943725;28;20135;-76
2023/08/06 13:16:44;;;;;;;;;;;20.60;99.90;;;;;;4943147;28;20147;-76
2023/08/06 13:19:13;;;;;;;4.07;1.90;;;20.70;99.90;;;;;;4941472;28;19927;-76
2023/08/06 13:21:41;;;;;;;2.08;1.00;;;20.60;99.90;;;;;;4924580;28;20086;-76
2023/08/06 13:24:07;;;;;;;6.90;3.20;;;20.60;99.90;;;;;;4926261;28;20091;-76
2023/08/06 13:26:33;;;;;;;1.92;0.93;;;20.60;99.90;;;;;;4940096;28;20562;-76
2023/08/06 13:29:00;;;;;;;6.03;3.38;;;20.50;99.90;;;;;;4946981;28;20038;-76
2023/08/06 13:31:26;;;;;;;1.67;0.80;;;20.50;99.90;;;;;;4942156;28;20109;-77
2023/08/06 13:33:55;;;;;;;2.42;0.98;;;20.50;99.90;;;;;;4958804;28;20043;-76
2023/08/06 13:36:21;;;;;;;2.83;1.85;;;20.50;99.90;;;;;;4942898;28;20486;-76
2023/08/06 13:38:47;;;;;;;5.13;2.95;;;20.50;99.90;;;;;;4945056;28;20042;-76
2023/08/06 13:41:12;;;;;;;7.63;3.97;;;20.50;99.90;;;;;;4959897;28;20047;-76
2023/08/06 13:43:39;;;;;;;1.48;0.80;;;20.60;99.90;;;;;;4926535;29;20103;-76
2023/08/06 13:46:04;;;;;;;2.42;1.08;;;20.60;99.90;;;;;;4939882;28;20043;-76
2023/08/06 13:48:30;;;;;;;1.48;0.90;;;20.60;99.90;;;;;;4946380;28;20054;-76
2023/08/06 13:50:56;;;;;;;1.63;0.80;;;20.60;99.90;;;;;;4943231;28;20118;-76
2023/08/06 13:53:22;;;;;;;4.05;0.90;;;20.70;99.90;;;;;;4941510;28;20044;-76
2023/08/06 13:55:47;;;;;;;3.67;1.33;;;20.60;99.90;;;;;;4947544;29;20058;-76
2023/08/06 13:58:14;;;;;;;1.77;1.23;;;20.60;99.90;;;;;;4943918;28;20036;-76
2023/08/06 14:00:39;;;;;;;2.70;0.80;;;20.50;99.90;;;;;;4947259;28;20419;-76
2023/08/06 14:03:05;;;;;;;1.75;0.93;;;20.60;99.90;;;;;;4933546;28;20055;-77
2023/08/06 14:05:31;;;;;;;2.83;1.02;;;20.40;99.90;;;;;;4929025;28;20039;-76
2023/08/06 14:07:56;;;;;;;3.95;1.15;;;20.50;99.90;;;;;;4944693;28;20126;-76
2023/08/06 14:10:22;;;;;;;1.85;0.88;;;20.50;99.90;;;;;;4927090;29;20047;-75
2023/08/06 14:12:49;;;;;;;7.60;1.77;;;20.50;99.90;;;;;;4945348;28;20036;-75
2023/08/06 14:15:14;;;;;;;3.92;1.23;;;20.50;99.90;;;;;;4958471;28;20039;-75
2023/08/06 14:17:40;;;;;;;2.30;1.08;;;20.50;99.90;;;;;;4946023;28;20036;-75
2023/08/06 14:20:08;;;;;;;1.33;1.00;;;20.50;99.90;;;;;;4929676;29;20039;-75
2023/08/06 14:22:33;;;;;;;2.97;0.90;;;20.60;99.90;;;;;;4941975;28;20039;-75
2023/08/06 14:24:59;;;;;;;2.00;0.90;;;20.60;99.90;;;;;;4929184;29;20105;-75
2023/08/06 14:27:25;;;;;;;2.17;0.70;;;20.60;99.90;;;;;;4940651;28;20042;-76
2023/08/06 14:29:50;;;;;;;4.53;1.02;;;20.70;99.90;;;;;;4942804;28;20039;-77
2023/08/06 14:32:17;;;;;;;2.55;1.15;;;20.70;99.90;;;;;;4929064;29;20039;-77
2023/08/06 14:34:44;;;;;;;3.20;1.02;;;20.60;99.90;;;;;;4923426;29;20094;-78
2023/08/06 14:37:10;;;;;;;1.98;0.80;;;20.70;99.90;;;;;;4958636;28;20134;-79
2023/08/06 14:39:35;;;;;;;1.27;1.00;;;20.60;99.90;;;;;;4955440;28;20044;-78
2023/08/06 14:42:02;;;;;;;1.00;0.77;;;20.70;99.90;;;;;;4942454;28;20040;-77
2023/08/06 14:44:27;;;;;;;2.25;1.15;;;20.80;99.90;;;;;;4943477;28;20110;-80
2023/08/06 14:46:53;;;;;;;2.83;0.80;;;20.90;99.90;;;;;;4929121;29;20190;-75
2023/08/06 14:49:19;;;;;;;1.80;0.73;;;20.80;99.90;;;;;;4924376;29;20051;-77
2023/08/06 14:51:44;;;;;;;2.13;0.93;;;20.80;99.90;;;;;;4941551;28;20039;-77
2023/08/06 14:54:10;;;;;;;1.70;0.82;;;20.80;99.90;;;;;;4943762;28;20083;-77
2023/08/06 14:56:35;;;;;;;1.73;0.80;;;20.80;99.90;;;;;;4963908;28;20122;-77
2023/08/06 14:59:01;;;;;;;1.40;0.85;;;20.80;99.90;;;;;;4950074;28;20043;-77
2023/08/06 15:01:26;;;;;;;4.50;1.17;;;20.70;99.90;;;;;;4933141;29;20058;-77
2023/08/06 15:03:52;;;;;;;3.65;0.95;;;20.60;99.90;;;;;;4950560;28;20039;-77
2023/08/06 15:06:18;;;;;;;1.55;0.60;;;20.50;99.90;;;;;;4946879;28;20039;-78
2023/08/06 15:08:46;;;;;;;0.85;0.80;;;20.50;99.90;;;;;;4945133;28;20051;-78
2023/08/06 15:11:13;;;;;;;0.70;0.63;;;20.60;99.90;;;;;;4945906;28;20058;-74
2023/08/06 15:13:39;;;;;;;1.83;0.90;;;20.70;99.90;;;;;;4929311;29;20051;-71
2023/08/06 15:16:04;;;;;;;2.05;1.02;;;20.60;99.90;;;;;;4930691;28;20409;-76
2023/08/06 15:18:30;;;;;;;3.90;1.40;;;20.60;99.90;;;;;;4929427;28;20050;-76
2023/08/06 15:20:57;;;;;;;2.15;0.80;;;20.50;99.90;;;;;;4945547;28;20059;-76
2023/08/06 15:23:23;;;;;;;2.92;0.80;;;20.50;99.90;;;;;;4927076;28;20494;-76
2023/08/06 15:25:49;;;;;;;1.55;0.80;;;20.50;99.90;;;;;;4959331;28;20215;-76
2023/08/06 15:28:14;;;;;;;7.38;1.77;;;20.60;99.90;;;;;;4946566;28;20130;-76
2023/08/06 15:30:42;;;;;;;1.13;0.90;;;20.50;99.90;;;;;;4941952;28;20050;-76
2023/08/06 15:33:07;;;;;;;2.15;1.05;;;20.60;99.90;;;;;;4947871;28;20059;-76
2023/08/06 15:35:33;;;;;;;2.25;0.98;;;20.60;99.90;;;;;;4926696;28;20047;-76
2023/08/06 15:37:58;;;;;;;1.25;0.70;;;20.60;99.90;;;;;;4931964;28;20080;-76
2023/08/06 15:40:25;;;;;;;3.95;0.98;;;20.50;99.90;;;;;;4928563;29;20034;-76
2023/08/06 15:42:50;;;;;;;1.65;0.80;;;20.60;99.90;;;;;;4962193;28;20071;-76
2023/08/06 15:45:16;;;;;;;2.25;1.15;;;20.70;99.90;;;;;;4958197;28;20055;-76
2023/08/06 15:47:42;;;;;;;1.42;1.10;;;20.70;99.90;;;;;;4927217;29;20377;-76
2023/08/06 15:50:09;;;;;;;1.23;0.82;;;20.80;99.90;;;;;;4946066;28;20039;-76
2023/08/06 15:52:35;;;;;;;1.75;0.80;;;20.80;99.90;;;;;;4948600;28;20121;-76
2023/08/06 15:55:04;;;;;;;1.90;1.15;;;20.60;99.90;;;;;;4946838;28;20085;-75
2023/08/06 15:57:32;;;;;;;2.08;1.00;;;20.70;99.90;;;;;;4961807;28;20031;-76
2023/08/06 15:59:57;;;;;;;1.20;1.02;;;20.70;99.90;;;;;;4949028;28;20125;-76
2023/08/06 16:02:24;;;;;;;1.67;0.95;;;20.70;99.90;;;;;;4948126;28;20035;-76
2023/08/06 16:04:50;;;;;;;1.20;0.85;;;20.70;99.90;;;;;;4960708;28;20051;-76
2023/08/06 16:07:16;;;;;;;5.55;1.00;;;20.70;99.90;;;;;;4959217;28;20091;-76
2023/08/06 16:09:42;;;;;;;1.33;0.85;;;20.60;99.90;;;;;;4945961;28;20089;-76
2023/08/06 16:12:08;;;;;;;1.50;0.95;;;20.50;99.90;;;;;;4959273;28;20074;-76
2023/08/06 16:14:35;;;;;;;1.80;1.10;;;20.30;99.90;;;;;;4928106;29;20043;-76
2023/08/06 16:17:01;;;;;;;2.22;1.05;;;20.30;99.90;;;;;;4958971;28;20518;-76
2023/08/06 16:19:27;;;;;;;1.40;1.25;;;20.20;99.90;;;;;;4946838;28;20036;-76
2023/08/06 16:21:52;;;;;;;1.83;1.20;;;20.30;99.90;;;;;;4946569;28;20130;-76
2023/08/06 16:24:19;;;;;;;1.20;0.95;;;20.40;99.90;;;;;;4927578;28;20090;-76
2023/08/06 16:26:45;;;;;;;2.53;1.20;;;20.40;99.90;;;;;;4916586;29;20071;-76
2023/08/06 16:29:10;;;;;;;1.40;1.00;;;20.40;99.90;;;;;;4943300;28;20052;-75
2023/08/06 16:31:36;;;;;;;3.35;1.27;;;20.50;99.90;;;;;;4926881;29;20086;-76
2023/08/06 16:34:01;;;;;;;2.28;1.13;;;20.40;99.90;;;;;;4959037;28;20119;-76
2023/08/06 16:36:27;;;;;;;3.40;1.38;;;20.40;99.90;;;;;;4944905;28;20038;-76
2023/08/06 16:38:53;;;;;;;1.48;1.30;;;20.50;99.90;;;;;;4942251;28;20043;-76
2023/08/06 16:41:19;;;;;;;4.93;1.40;;;20.40;99.90;;;;;;4927400;29;20435;-76